createdAt,value
2023-05-03T00:00:33.321Z,101022.17
2023-05-03T00:03:04.872Z,101018.38
2023-05-03T00:05:36.168Z,101014.10
2023-05-03T00:08:07.301Z,101013.93
2023-05-03T00:10:38.034Z,101017.02
2023-05-03T00:13:08.777Z,101016.83
2023-05-03T00:15:39.513Z,101017.70
2023-05-03T00:18:10.366Z,101017.36
2023-05-03T00:20:41.183Z,101013.60
2023-05-03T00:23:12.500Z,101018.92
2023-05-03T00:25:43.227Z,101021.33
2023-05-03T00:28:13.914Z,101020.83
2023-05-03T00:30:44.652Z,101017.93
2023-05-03T00:33:15.409Z,101013.48
2023-05-03T00:35:46.731Z,101006.48
2023-05-03T00:38:17.673Z,101005.13
2023-05-03T00:40:54.550Z,101002.40
2023-05-03T00:43:25.238Z,101000.34
2023-05-03T00:46:08.307Z,101001.20
2023-05-03T00:48:43.900Z,101004.79
2023-05-03T00:51:16.403Z,101007.36
2023-05-03T00:53:47.515Z,101010.11
2023-05-03T00:56:22.978Z,101016.98
2023-05-03T00:58:54.788Z,101019.53
2023-05-03T01:01:26.483Z,101025.70
2023-05-03T01:03:58.039Z,101033.59
2023-05-03T01:06:40.623Z,101033.77
2023-05-03T01:09:19.065Z,101034.61
2023-05-03T01:11:56.234Z,101039.08
2023-05-03T01:14:42.408Z,101040.96
2023-05-03T01:17:15.697Z,101041.65
2023-05-03T01:19:50.239Z,101041.98
2023-05-03T01:22:28.572Z,101045.08
2023-05-03T01:25:07.678Z,101047.81
2023-05-03T01:27:39.313Z,101044.91
2023-05-03T01:30:13.249Z,101050.05
2023-05-03T01:32:57.304Z,101050.73
2023-05-03T01:35:36.852Z,101054.84
2023-05-03T01:38:08.593Z,101052.27
2023-05-03T01:40:44.613Z,101056.71
2023-05-03T01:43:17.342Z,101063.73
2023-05-03T01:45:49.022Z,101068.70
2023-05-03T01:48:20.892Z,101071.94
2023-05-03T01:50:51.659Z,101073.48
2023-05-03T01:53:22.420Z,101069.20
2023-05-03T01:55:53.460Z,101070.90
2023-05-03T01:58:26.640Z,101071.23
2023-05-03T02:01:17.186Z,101068.17
2023-05-03T02:03:48.023Z,101065.77
2023-05-03T02:06:21.020Z,101062.86
2023-05-03T02:08:51.984Z,101063.55
2023-05-03T02:11:22.969Z,101060.13
2023-05-03T02:14:02.049Z,101059.10
2023-05-03T02:16:33.389Z,101058.42
2023-05-03T02:19:05.618Z,101058.91
2023-05-03T02:21:37.308Z,101064.73
2023-05-03T02:24:08.885Z,101072.27
2023-05-03T02:26:39.609Z,101067.13
2023-05-03T02:29:10.578Z,101075.34
2023-05-03T02:31:41.329Z,101081.84
2023-05-03T02:34:12.374Z,101091.41
2023-05-03T02:36:43.209Z,101091.23
2023-05-03T02:39:13.994Z,101086.98
2023-05-03T02:41:45.495Z,101081.51
2023-05-03T02:44:16.702Z,101082.02
2023-05-03T02:46:47.454Z,101082.88
2023-05-03T02:49:19.531Z,101086.13
2023-05-03T02:51:50.569Z,101085.10
2023-05-03T02:54:21.588Z,101083.21
2023-05-03T02:56:52.718Z,101080.31
2023-05-03T02:59:23.606Z,101083.20
2023-05-03T03:01:54.958Z,101081.50
2023-05-03T03:04:26.361Z,101083.38
2023-05-03T03:06:57.875Z,101085.95
2023-05-03T03:09:28.682Z,101090.20
2023-05-03T03:11:59.746Z,101089.01
2023-05-03T03:14:30.597Z,101090.88
2023-05-03T03:17:02.015Z,101089.17
2023-05-03T03:19:33.279Z,101092.05
2023-05-03T03:22:04.183Z,101093.42
2023-05-03T03:24:35.839Z,101092.40
2023-05-03T03:27:07.740Z,101105.05
2023-05-03T03:29:38.853Z,101105.03
2023-05-03T03:32:09.947Z,101107.77
2023-05-03T03:34:40.845Z,101109.83
2023-05-03T03:37:11.682Z,101115.47
2023-05-03T03:39:42.835Z,101114.63
2023-05-03T03:42:14.578Z,101114.98
2023-05-03T03:44:45.690Z,101117.54
2023-05-03T03:47:17.454Z,101120.80
2023-05-03T03:49:48.648Z,101123.02
2023-05-03T03:52:19.467Z,101119.27
2023-05-03T03:54:50.255Z,101118.58
2023-05-03T03:57:21.382Z,101134.13
2023-05-03T03:59:52.369Z,101136.35
2023-05-03T04:02:24.683Z,101139.76
2023-05-03T04:04:55.734Z,101147.80
2023-05-03T04:07:27.025Z,101148.81
2023-05-03T04:09:59.049Z,101152.26
2023-05-03T04:12:30.309Z,101158.25
2023-05-03T04:15:01.689Z,101162.35
2023-05-03T04:17:34.946Z,101164.92
2023-05-03T04:20:11.064Z,101160.82
2023-05-03T04:22:43.007Z,101160.50
2023-05-03T04:25:15.143Z,101162.05
2023-05-03T04:27:47.488Z,101163.45
2023-05-03T04:30:18.655Z,101165.37
2023-05-03T04:32:54.403Z,101164.88
2023-05-03T04:35:26.945Z,101166.42
2023-05-03T04:37:58.142Z,101171.21
2023-05-03T04:40:30.136Z,101169.98
2023-05-03T04:43:06.715Z,101171.95
2023-05-03T04:45:40.971Z,101180.20
2023-05-03T04:48:13.245Z,101179.73
2023-05-03T04:50:44.824Z,101173.78
2023-05-03T04:53:16.858Z,101175.29
2023-05-03T04:55:50.656Z,101171.86
2023-05-03T04:58:21.640Z,101173.56
2023-05-03T05:00:52.654Z,101176.64
2023-05-03T05:03:28.525Z,101184.38
2023-05-03T05:05:59.617Z,101191.30
2023-05-03T05:08:30.460Z,101197.63
2023-05-03T05:11:02.862Z,101196.74
2023-05-03T05:13:34.410Z,101192.27
2023-05-03T05:16:06.483Z,101191.23
2023-05-03T05:18:38.226Z,101196.07
2023-05-03T05:21:09.765Z,101196.92
2023-05-03T05:23:41.648Z,101201.67
2023-05-03T05:26:12.393Z,101208.39
2023-05-03T05:28:43.153Z,101201.88
2023-05-03T05:31:14.358Z,101202.58
2023-05-03T05:33:46.804Z,101200.63
2023-05-03T05:36:18.490Z,101203.30
2023-05-03T05:38:49.415Z,101206.59
2023-05-03T05:41:21.237Z,101205.54
2023-05-03T05:43:52.133Z,101200.67
2023-05-03T05:46:23.379Z,101205.58
2023-05-03T05:48:55.764Z,101207.33
2023-05-03T05:51:28.111Z,101210.14
2023-05-03T05:53:59.244Z,101211.70
2023-05-03T05:56:29.991Z,101218.21
2023-05-03T05:59:01.067Z,101221.81
2023-05-03T06:01:33.630Z,101224.05
2023-05-03T06:04:05.077Z,101226.20
2023-05-03T06:06:36.407Z,101230.12
2023-05-03T06:09:23.494Z,101232.04
2023-05-03T06:11:58.034Z,101231.88
2023-05-03T06:14:30.722Z,101237.68
2023-05-03T06:17:02.329Z,101234.64
2023-05-03T06:19:33.128Z,101238.84
2023-05-03T06:22:03.912Z,101241.83
2023-05-03T06:24:35.866Z,101242.52
2023-05-03T06:27:06.736Z,101236.15
2023-05-03T06:29:38.272Z,101242.73
2023-05-03T06:32:09.407Z,101244.88
2023-05-03T06:34:43.230Z,101244.19
2023-05-03T06:37:14.305Z,101248.84
2023-05-03T06:39:45.101Z,101248.12
2023-05-03T06:42:15.949Z,101242.91
2023-05-03T06:44:48.437Z,101240.02
2023-05-03T06:47:20.670Z,101240.05
2023-05-03T06:49:51.602Z,101244.23
2023-05-03T06:52:22.293Z,101247.90
2023-05-03T06:54:53.617Z,101252.14
2023-05-03T06:57:27.494Z,101255.05
2023-05-03T06:59:59.544Z,101255.47
2023-05-03T07:02:30.267Z,101254.67
2023-05-03T07:05:01.470Z,101251.92
2023-05-03T07:07:32.253Z,101254.99
2023-05-03T07:10:03.532Z,101258.08
2023-05-03T07:12:34.567Z,101257.11
2023-05-03T07:15:08.648Z,101257.70
2023-05-03T07:17:39.607Z,101253.33
2023-05-03T07:20:12.506Z,101253.03
2023-05-03T07:22:43.261Z,101247.60
2023-05-03T07:25:16.858Z,101251.79
2023-05-03T07:27:47.883Z,101253.90
2023-05-03T07:30:19.303Z,101256.26
2023-05-03T07:32:50.841Z,101257.96
2023-05-03T07:35:23.294Z,101260.49
2023-05-03T07:37:54.302Z,101258.84
2023-05-03T07:40:25.169Z,101262.06
2023-05-03T07:42:55.948Z,101260.71
2023-05-03T07:45:27.307Z,101263.49
2023-05-03T07:47:59.117Z,101265.02
2023-05-03T07:50:29.994Z,101261.26
2023-05-03T07:53:00.952Z,101257.11
2023-05-03T07:55:33.171Z,101259.03
2023-05-03T07:58:04.825Z,101258.99
2023-05-03T08:00:35.877Z,101261.97
2023-05-03T08:03:07.035Z,101254.67
2023-05-03T08:05:38.091Z,101253.98
2023-05-03T08:08:09.312Z,101251.84
2023-05-03T08:10:40.034Z,101259.55
2023-05-03T08:13:11.702Z,101263.22
2023-05-03T08:15:42.552Z,101262.75
2023-05-03T08:18:13.265Z,101267.68
2023-05-03T08:20:44.088Z,101263.33
2023-05-03T08:23:17.011Z,101263.23
2023-05-03T08:25:48.435Z,101262.88
2023-05-03T08:28:19.386Z,101265.27
2023-05-03T08:30:50.211Z,101264.42
2023-05-03T08:33:20.848Z,101265.39
2023-05-03T08:35:52.726Z,101266.66
2023-05-03T08:38:23.881Z,101262.94
2023-05-03T08:40:59.340Z,101258.66
2023-05-03T08:43:31.463Z,101258.79
2023-05-03T08:46:02.292Z,101263.83
2023-05-03T08:48:34.049Z,101268.11
2023-05-03T08:51:10.020Z,101266.86
2023-05-03T08:53:40.819Z,101267.41
2023-05-03T08:56:13.613Z,101263.81
2023-05-03T08:58:44.547Z,101267.10
2023-05-03T09:01:15.843Z,101276.32
2023-05-03T09:03:52.957Z,101273.09
2023-05-03T09:06:26.413Z,101273.48
2023-05-03T09:08:57.839Z,101276.98
2023-05-03T09:11:30.338Z,101276.98
2023-05-03T09:14:13.601Z,101272.37
2023-05-03T09:16:46.811Z,101267.94
2023-05-03T09:19:18.636Z,101268.23
2023-05-03T09:21:49.532Z,101280.15
2023-05-03T09:24:21.606Z,101281.95
2023-05-03T09:26:54.363Z,101279.01
2023-05-03T09:29:32.743Z,101276.91
2023-05-03T09:32:06.262Z,101281.23
2023-05-03T09:34:38.297Z,101285.41
2023-05-03T09:37:09.033Z,101287.09
2023-05-03T09:39:39.804Z,101284.02
2023-05-03T09:42:18.657Z,101284.70
2023-05-03T09:44:51.742Z,101282.34
2023-05-03T09:47:25.501Z,101278.99
2023-05-03T09:49:56.716Z,101278.41
2023-05-03T09:52:30.410Z,101285.83
2023-05-03T09:55:01.401Z,101284.06
2023-05-03T09:57:34.836Z,101283.52
2023-05-03T10:00:06.364Z,101280.17
2023-05-03T10:02:43.545Z,101278.74
2023-05-03T10:05:21.434Z,101279.30
2023-05-03T10:07:52.077Z,101280.64
2023-05-03T10:10:23.693Z,101274.85
2023-05-03T10:12:54.788Z,101280.44
2023-05-03T10:15:30.696Z,101284.64
2023-05-03T10:18:08.009Z,101288.89
2023-05-03T10:20:45.347Z,101290.77
2023-05-03T10:23:16.824Z,101288.17
2023-05-03T10:26:17.690Z,101285.48
2023-05-03T10:28:49.649Z,101277.48
2023-05-03T10:31:48.364Z,101276.41
2023-05-03T10:34:27.056Z,101279.06
2023-05-03T10:36:57.968Z,101280.98
2023-05-03T10:39:30.715Z,101281.14
2023-05-03T10:42:04.236Z,101285.80
2023-05-03T10:44:42.410Z,101280.30
2023-05-03T10:47:18.073Z,101280.69
2023-05-03T10:50:09.241Z,101279.85
2023-05-03T10:52:53.497Z,101283.56
2023-05-03T10:55:29.032Z,101273.09
2023-05-03T10:58:01.535Z,101273.54
2023-05-03T11:00:38.702Z,101272.02
2023-05-03T11:03:29.387Z,101270.92
2023-05-03T11:06:00.126Z,101273.04
2023-05-03T11:08:37.502Z,101281.79
2023-05-03T11:11:09.609Z,101278.88
2023-05-03T11:13:40.437Z,101279.00
2023-05-03T11:16:12.023Z,101288.77
2023-05-03T11:18:42.878Z,101289.95
2023-05-03T11:21:14.580Z,101287.95
2023-05-03T11:23:46.252Z,101287.48
2023-05-03T11:26:17.673Z,101290.05
2023-05-03T11:28:49.351Z,101283.42
2023-05-03T11:31:22.139Z,101287.27
2023-05-03T11:33:53.632Z,101284.61
2023-05-03T11:36:28.038Z,101288.83
2023-05-03T11:38:59.126Z,101291.46
2023-05-03T11:41:29.892Z,101292.45
2023-05-03T11:44:14.891Z,101292.41
2023-05-03T11:46:49.191Z,101280.58
2023-05-03T11:49:21.901Z,101285.36
2023-05-03T11:51:54.844Z,101282.63
2023-05-03T11:54:28.464Z,101280.34
2023-05-03T11:57:02.024Z,101282.77
2023-05-03T11:59:47.507Z,101282.41
2023-05-03T12:02:18.656Z,101282.67
2023-05-03T12:04:49.655Z,101280.70
2023-05-03T12:07:22.920Z,101279.86
2023-05-03T12:10:10.776Z,101284.03
2023-05-03T12:12:56.816Z,101285.60
2023-05-03T12:15:40.328Z,101287.88
2023-05-03T12:19:03.283Z,101279.89
2023-05-03T12:24:24.688Z,101279.34
2023-05-03T12:26:57.505Z,101273.36
2023-05-03T12:29:49.667Z,101271.91
2023-05-03T12:36:53.991Z,101273.77
2023-05-03T12:39:27.556Z,101271.01
2023-05-03T12:44:35.119Z,101269.65
2023-05-03T12:47:11.461Z,101270.77
2023-05-03T12:49:46.451Z,101268.62
2023-05-03T12:52:37.157Z,101267.53
2023-05-03T12:55:11.613Z,101264.55
2023-05-03T12:57:45.734Z,101265.55
2023-05-03T13:00:24.970Z,101263.01
2023-05-03T13:05:36.216Z,101258.63
2023-05-03T13:08:09.783Z,101258.70
2023-05-03T13:10:43.260Z,101257.10
2023-05-03T13:13:14.297Z,101257.87
2023-05-03T13:15:45.295Z,101257.33
2023-05-03T13:18:16.492Z,101255.05
2023-05-03T13:20:49.011Z,101257.05
2023-05-03T13:23:19.855Z,101255.41
2023-05-03T13:25:54.335Z,101252.73
2023-05-03T13:28:25.093Z,101249.20
2023-05-03T13:30:56.149Z,101240.98
2023-05-03T13:33:28.881Z,101243.14
2023-05-03T13:35:59.692Z,101241.81
2023-05-03T13:38:30.458Z,101241.98
2023-05-03T13:41:01.320Z,101237.83
2023-05-03T13:43:32.337Z,101235.91
2023-05-03T13:46:04.502Z,101229.51
2023-05-03T13:48:35.479Z,101232.87
2023-05-03T13:51:12.438Z,101233.52
2023-05-03T13:53:44.286Z,101231.90
2023-05-03T13:56:15.126Z,101230.63
2023-05-03T13:58:47.188Z,101227.48
2023-05-03T14:01:18.067Z,101232.05
2023-05-03T14:03:50.346Z,101229.53
2023-05-03T14:06:21.992Z,101230.49
2023-05-03T14:08:54.416Z,101232.39
2023-05-03T14:11:25.764Z,101230.81
2023-05-03T14:13:57.729Z,101231.42
2023-05-03T14:19:03.526Z,101235.54
2023-05-03T14:21:34.736Z,101235.12
2023-05-03T14:24:06.881Z,101232.79
2023-05-03T14:26:37.873Z,101232.49
2023-05-03T14:29:08.589Z,101232.66
2023-05-03T14:31:39.804Z,101236.97
2023-05-03T14:34:10.632Z,101234.55
2023-05-03T14:36:43.829Z,101234.94
2023-05-03T14:43:34.586Z,101236.30
2023-05-03T14:46:05.655Z,101238.86
2023-05-03T14:48:36.444Z,101236.05
2023-05-03T14:51:07.980Z,101236.48
2023-05-03T14:53:38.724Z,101240.86
2023-05-03T14:56:10.103Z,101239.30
2023-05-03T14:58:41.469Z,101241.92
2023-05-03T15:01:19.652Z,101240.60
2023-05-03T15:03:50.854Z,101240.80
2023-05-03T15:06:28.870Z,101234.11
2023-05-03T15:09:00.165Z,101239.34
2023-05-03T15:15:23.703Z,101238.02
2023-05-03T15:17:54.765Z,101237.61
2023-05-03T15:20:25.666Z,101239.91
2023-05-03T15:22:56.483Z,101239.81
2023-05-03T15:25:27.704Z,101244.10
2023-05-03T15:28:00.610Z,101246.83
2023-05-03T15:30:32.245Z,101249.23
2023-05-03T15:33:05.093Z,101247.28
2023-05-03T15:35:40.008Z,101246.84
2023-05-03T15:38:10.920Z,101247.77
2023-05-03T15:40:41.824Z,101247.51
2023-05-03T15:43:12.534Z,101246.70
2023-05-03T15:45:43.270Z,101250.35
2023-05-03T15:48:14.425Z,101251.23
2023-05-03T15:50:45.185Z,101250.67
2023-05-03T15:53:16.247Z,101250.69
2023-05-03T15:55:47.233Z,101245.37
2023-05-03T15:58:19.366Z,101244.70
2023-05-03T16:00:50.514Z,101245.23
2023-05-03T16:03:21.731Z,101242.16
2023-05-03T16:05:54.334Z,101244.09
2023-05-03T16:09:49.668Z,101246.90
2023-05-03T16:12:20.503Z,101247.48
2023-05-03T16:14:52.034Z,101245.80
2023-05-03T16:18:22.016Z,101245.67
2023-05-03T16:24:52.386Z,101246.12
2023-05-03T16:27:29.404Z,101245.98
2023-05-03T16:30:07.429Z,101243.63
2023-05-03T16:32:44.406Z,101246.73
2023-05-03T16:40:13.535Z,101245.11
2023-05-03T16:42:44.353Z,101249.81
2023-05-03T16:49:59.862Z,101252.73
2023-05-03T16:52:31.578Z,101254.70
2023-05-03T16:55:02.922Z,101258.01
2023-05-03T16:57:38.719Z,101254.59
2023-05-03T17:00:14.300Z,101254.29
2023-05-03T17:02:49.615Z,101253.98
2023-05-03T17:05:24.963Z,101257.11
2023-05-03T17:07:56.526Z,101256.30
2023-05-03T17:10:28.913Z,101259.61
2023-05-03T17:13:01.334Z,101260.67
2023-05-03T17:15:33.753Z,101261.05
2023-05-03T17:18:05.838Z,101262.48
2023-05-03T17:20:38.253Z,101262.03
2023-05-03T17:23:09.664Z,101261.02
2023-05-03T17:25:44.482Z,101257.62
2023-05-03T17:28:16.057Z,101260.08
2023-05-03T17:31:19.552Z,101263.42
2023-05-03T17:33:52.189Z,101263.98
2023-05-03T17:36:24.369Z,101259.41
2023-05-03T17:39:09.637Z,101266.01
2023-05-03T17:41:41.595Z,101266.40
2023-05-03T17:44:18.428Z,101271.98
2023-05-03T17:46:50.123Z,101273.11
2023-05-03T17:49:21.073Z,101277.11
2023-05-03T17:52:08.138Z,101281.47
2023-05-03T17:54:43.241Z,101284.64
2023-05-03T18:36:28.257Z,101305.22
2023-05-03T19:31:30.932Z,101326.73
2023-05-03T20:01:09.851Z,101332.41
2023-05-03T20:07:49.271Z,101336.04
2023-05-03T20:13:53.975Z,101335.80
2023-05-03T20:16:27.448Z,101334.56
2023-05-03T20:19:58.006Z,101334.17
2023-05-03T20:34:37.038Z,101332.48
2023-05-03T21:43:19.577Z,101330.48
2023-05-03T21:45:48.298Z,101333.44
2023-05-03T21:48:16.223Z,101331.79
2023-05-03T21:50:45.432Z,101331.46
2023-05-03T21:53:13.941Z,101331.34
2023-05-03T21:55:41.913Z,101330.70
2023-05-03T21:58:10.243Z,101330.59
2023-05-03T22:00:39.501Z,101332.00
2023-05-03T22:03:08.107Z,101332.06
2023-05-03T22:05:41.538Z,101327.68
2023-05-03T22:08:12.343Z,101333.20
2023-05-03T22:10:40.895Z,101336.18
2023-05-03T22:13:08.898Z,101335.90
2023-05-03T22:15:38.392Z,101336.34
2023-05-03T22:18:06.554Z,101335.75
2023-05-03T22:20:34.714Z,101336.02
2023-05-03T22:23:02.824Z,101337.64
2023-05-03T22:25:32.421Z,101340.81
2023-05-03T22:28:00.888Z,101340.41
2023-05-03T22:30:29.157Z,101342.54
2023-05-03T22:32:57.242Z,101340.42
2023-05-03T22:35:25.374Z,101344.80
2023-05-03T22:37:53.344Z,101344.39
2023-05-03T22:40:21.445Z,101340.25
2023-05-03T22:42:49.466Z,101340.35
2023-05-03T22:45:17.636Z,101340.96
2023-05-03T22:47:45.637Z,101343.30
2023-05-03T22:50:16.995Z,101347.16
2023-05-03T22:52:45.101Z,101344.03
2023-05-03T22:55:13.426Z,101346.00
2023-05-03T22:57:41.554Z,101341.52
2023-05-03T23:00:14.842Z,101345.88
2023-05-03T23:02:42.865Z,101343.08
2023-05-03T23:05:14.385Z,101343.33
2023-05-03T23:07:42.714Z,101338.30
2023-05-03T23:10:11.550Z,101339.08
2023-05-03T23:12:39.719Z,101340.89
2023-05-03T23:15:09.733Z,101343.71
2023-05-03T23:17:37.884Z,101345.70
2023-05-03T23:20:09.287Z,101343.95
2023-05-03T23:23:02.936Z,101339.07
2023-05-03T23:25:35.680Z,101339.88
2023-05-03T23:28:53.090Z,101337.94
2023-05-03T23:35:09.794Z,101341.36
2023-05-03T23:37:37.795Z,101337.91
2023-05-03T23:40:07.887Z,101335.99
2023-05-03T23:42:35.926Z,101332.55
2023-05-03T23:45:04.732Z,101333.70
2023-05-03T23:47:32.722Z,101328.39
2023-05-03T23:50:03.619Z,101325.79
2023-05-03T23:52:31.902Z,101328.30
2023-05-03T23:55:00.238Z,101320.41
2023-05-03T23:57:28.199Z,101324.64
